Main page
METAR-TAF:

METAR-TAF

Airports :

Cork Airport

Cork, Ireland

latitude: 51-51N, longitude: 008-29W, elevation: 153 m

Current weather observation

The report was made 22 minutes ago, at 07:00 UTC
Wind 7 kt from the Northwest
Temperature 19°C
Humidity 68%
Pressure 1015 hPa
Visibility 10 km or more
Few clouds at a height of 4000 ft

METAR: EICK 130700Z 32007KT 9999 FEW040 19/13 Q1015 NOSIG

Time: 08:22 (07:22 UTC)

Forecast

The report was made 2 hours and 22 minutes ago, at 05:00 UTC
Forecast valid from 13 at 06 UTC to 14 at 06 UTC
Wind 6 kt from the Northwest
Visibility 10 km or more
Few clouds at a height of 3000 ft
Becoming
from 13 at 12 UTC to 13 at 14 UTC
Wind 10 kt from the Southeast
Becoming
from 13 at 18 UTC to 13 at 20 UTC
Wind 3 kt from variable directions

TAF: EICK 130500Z 1306/1406 32006KT 9999 FEW030 BECMG 1312/1314 14010KT BECMG 1318/1320 VRB03KT

Weather observations and forecasts of more than 4000 airports (METAR and TAF reports).

The available stations are represented by yellow and red dots on the map.

Hover mouse over dot to see the name of the station.

Then click to see weather observations and forecasts.

To change the map : click on the green buttons with a black cross to zoom in, on the green button with a dash to zoom out, or on the green arrows for adjacent maps.


METAR-TAF: